Time;durP1;ratioP1;P1;durP2;ratioP2;P2;SDS_P1;SDS_P2;PMS_P1;PMS_P2;Temp;Humidity;BMP_temperature;BMP_pressure;BME280_temperature;BME280_humidity;BME280_pressure;Samples;Min_cycle;Max_cycle;Signal;HPM_P1;HPM_P2
2021/05/15 00:02:13;;;;;;;6.37;5.13;;;;;;;;;;5054060;28;20280;-55
2021/05/15 00:04:40;;;;;;;6.77;4.57;;;;;;;;;;5054027;28;20226;-56
2021/05/15 00:07:06;;;;;;;6.93;5.27;;;;;;;;;;5054328;28;20213;-54
2021/05/15 00:09:33;;;;;;;5.50;4.67;;;;;;;;;;5053635;28;20256;-57
2021/05/15 00:12:00;;;;;;;7.30;4.90;;;;;;;;;;5054025;28;20197;-55
2021/05/15 00:14:27;;;;;;;7.00;4.47;;;;;;;;;;5053601;28;20234;-56
2021/05/15 00:16:53;;;;;;;6.27;5.30;;;;;;;;;;5054115;28;20210;-53
2021/05/15 00:19:20;;;;;;;8.10;5.07;;;;;;;;;;5053811;28;20224;-53
2021/05/15 00:21:47;;;;;;;5.60;4.83;;;;;;;;;;5052779;28;20682;-57
2021/05/15 00:24:13;;;;;;;6.00;5.40;;;;;;;;;;5053211;28;20225;-57
2021/05/15 00:26:41;;;;;;;9.50;5.60;;;;;;;;;;5053485;28;20670;-58
2021/05/15 00:29:09;;;;;;;7.33;5.70;;;;;;;;;;5052985;28;20625;-57
2021/05/15 00:31:35;;;;;;;7.07;5.47;;;;;;;;;;5052237;28;20208;-58
2021/05/15 00:34:02;;;;;;;7.63;5.90;;;;;;;;;;5052817;28;20249;-57
2021/05/15 00:36:28;;;;;;;8.67;5.47;;;;;;;;;;5053179;28;20767;-57
2021/05/15 00:38:55;;;;;;;7.87;6.03;;;;;;;;;;5052921;28;20201;-60
2021/05/15 00:41:21;;;;;;;7.83;6.60;;;;;;;;;;5054721;28;20209;-57
2021/05/15 00:43:58;;;;;;;8.67;7.77;;;;;;;;;;5054066;28;20313;-59
2021/05/15 00:46:26;;;;;;;8.60;6.47;;;;;;;;;;5053929;28;20201;-57
2021/05/15 00:48:52;;;;;;;8.63;7.07;;;;;;;;;;5052701;28;20232;-58
2021/05/15 00:51:20;;;;;;;7.40;6.60;;;;;;;;;;5054690;28;20205;-61
2021/05/15 00:53:46;;;;;;;9.80;7.73;;;;;;;;;;5054799;28;20291;-60
2021/05/15 00:56:13;;;;;;;8.67;6.37;;;;;;;;;;5054702;28;20236;-60
2021/05/15 00:58:41;;;;;;;8.07;6.73;;;;;;;;;;5053878;28;20675;-59
2021/05/15 01:01:08;;;;;;;8.37;7.47;;;;;;;;;;5052695;28;20206;-58
2021/05/15 01:03:34;;;;;;;9.17;7.77;;;;;;;;;;5052583;28;20295;-56
2021/05/15 01:06:03;;;;;;;13.60;9.10;;;;;;;;;;5052468;28;20202;-57
2021/05/15 01:08:29;;;;;;;10.23;8.77;;;;;;;;;;5051632;28;20316;-60
2021/05/15 01:10:56;;;;;;;10.90;8.70;;;;;;;;;;5054224;28;20229;-58
2021/05/15 01:13:27;;;;;;;10.77;8.53;;;;;;;;;;5053301;28;20275;-56
2021/05/15 01:15:54;;;;;;;12.57;9.17;;;;;;;;;;5053315;28;20227;-57
2021/05/15 01:18:21;;;;;;;11.20;8.67;;;;;;;;;;5052671;28;20208;-58
2021/05/15 01:20:48;;;;;;;12.70;9.43;;;;;;;;;;5052751;28;20202;-57
2021/05/15 01:23:15;;;;;;;11.97;9.43;;;;;;;;;;5052385;28;20233;-57
2021/05/15 01:25:41;;;;;;;10.43;8.57;;;;;;;;;;5052968;28;20264;-56
2021/05/15 01:28:08;;;;;;;11.20;8.87;;;;;;;;;;5052519;28;20701;-55
2021/05/15 01:30:35;;;;;;;12.80;9.33;;;;;;;;;;5052674;28;20205;-57
2021/05/15 01:33:01;;;;;;;13.00;10.47;;;;;;;;;;5051744;28;20212;-53
2021/05/15 01:35:28;;;;;;;12.13;9.47;;;;;;;;;;5052285;28;20674;-52
2021/05/15 01:37:56;;;;;;;17.00;10.57;;;;;;;;;;5051550;28;20580;-55
2021/05/15 01:40:24;;;;;;;12.13;10.10;;;;;;;;;;5052419;28;20300;-53
2021/05/15 01:42:51;;;;;;;14.20;10.43;;;;;;;;;;5052637;28;20202;-55
2021/05/15 01:45:17;;;;;;;11.90;9.73;;;;;;;;;;5052229;28;20230;-53
2021/05/15 01:47:44;;;;;;;14.83;9.93;;;;;;;;;;5052140;28;20666;-55
2021/05/15 01:50:13;;;;;;;14.37;10.43;;;;;;;;;;5052041;28;20233;-57
2021/05/15 01:52:40;;;;;;;13.57;10.37;;;;;;;;;;5052439;28;20205;-54
2021/05/15 01:55:11;;;;;;;13.87;11.10;;;;;;;;;;5052339;28;20225;-55
2021/05/15 01:57:38;;;;;;;12.40;10.07;;;;;;;;;;5051775;28;20202;-55
2021/05/15 02:00:05;;;;;;;12.13;9.87;;;;;;;;;;5050944;28;20602;-56
2021/05/15 02:02:32;;;;;;;11.77;9.40;;;;;;;;;;5050848;28;20742;-57
2021/05/15 02:04:58;;;;;;;11.33;9.50;;;;;;;;;;5051260;28;20232;-55
2021/05/15 02:07:25;;;;;;;11.30;9.40;;;;;;;;;;5050888;28;20256;-58
2021/05/15 02:09:51;;;;;;;15.17;8.93;;;;;;;;;;5051015;28;20229;-56
2021/05/15 02:12:18;;;;;;;11.03;9.80;;;;;;;;;;5052223;28;20209;-53
2021/05/15 02:14:45;;;;;;;11.57;9.33;;;;;;;;;;5051892;28;20232;-58
2021/05/15 02:17:12;;;;;;;12.47;8.93;;;;;;;;;;5051934;28;20210;-55
2021/05/15 02:19:38;;;;;;;11.40;9.40;;;;;;;;;;5050582;28;20201;-56
2021/05/15 02:22:05;;;;;;;11.20;9.50;;;;;;;;;;5050974;28;20650;-58
2021/05/15 02:24:31;;;;;;;14.13;9.73;;;;;;;;;;5051903;28;20225;-58
2021/05/15 02:26:58;;;;;;;11.20;9.67;;;;;;;;;;5051487;28;20209;-58
2021/05/15 02:29:24;;;;;;;11.20;8.97;;;;;;;;;;5051587;28;20248;-58
2021/05/15 02:31:52;;;;;;;13.13;10.03;;;;;;;;;;5051259;28;20210;-59
2021/05/15 02:34:18;;;;;;;13.93;9.80;;;;;;;;;;5051069;28;20255;-56
2021/05/15 02:36:45;;;;;;;12.43;9.47;;;;;;;;;;5051920;28;20335;-56
2021/05/15 02:39:11;;;;;;;13.10;9.73;;;;;;;;;;5051437;28;20292;-57
2021/05/15 02:41:38;;;;;;;12.07;9.63;;;;;;;;;;5050752;28;20206;-58
2021/05/15 02:44:04;;;;;;;12.43;9.13;;;;;;;;;;5051383;28;20237;-55
2021/05/15 02:46:31;;;;;;;13.33;9.63;;;;;;;;;;5052029;28;20219;-58
2021/05/15 02:48:58;;;;;;;13.27;10.37;;;;;;;;;;5052668;28;20328;-58
2021/05/15 02:51:25;;;;;;;13.67;9.90;;;;;;;;;;5052603;28;20201;-57
2021/05/15 02:53:53;;;;;;;13.47;9.80;;;;;;;;;;5052801;28;20572;-56
2021/05/15 02:56:20;;;;;;;11.23;9.23;;;;;;;;;;5051490;28;20209;-51
2021/05/15 02:58:46;;;;;;;11.87;9.30;;;;;;;;;;5053398;28;20678;-54
2021/05/15 03:01:13;;;;;;;15.27;11.00;;;;;;;;;;5054515;28;20207;-57
2021/05/15 03:03:39;;;;;;;14.77;10.70;;;;;;;;;;5056473;28;20595;-58
2021/05/15 03:06:06;;;;;;;11.07;9.97;;;;;;;;;;5058871;28;20522;-57
2021/05/15 03:08:33;;;;;;;12.70;10.57;;;;;;;;;;5054843;28;20224;-54
2021/05/15 03:10:59;;;;;;;12.50;10.60;;;;;;;;;;5054799;28;20201;-58
2021/05/15 03:13:26;;;;;;;15.53;11.70;;;;;;;;;;5054238;28;20234;-57
2021/05/15 03:15:52;;;;;;;13.63;10.67;;;;;;;;;;5054983;28;20202;-55
2021/05/15 03:18:19;;;;;;;12.67;10.53;;;;;;;;;;5054912;28;20584;-56
2021/05/15 03:20:45;;;;;;;13.17;10.30;;;;;;;;;;5055005;28;20201;-58
2021/05/15 03:23:14;;;;;;;12.30;10.83;;;;;;;;;;5054906;28;20212;-57
2021/05/15 03:25:40;;;;;;;12.40;9.00;;;;;;;;;;5055037;28;20206;-53
2021/05/15 03:28:07;;;;;;;12.57;9.63;;;;;;;;;;5054775;28;20217;-55
2021/05/15 03:30:33;;;;;;;11.70;9.23;;;;;;;;;;5053625;28;20221;-54
2021/05/15 03:33:00;;;;;;;10.57;9.07;;;;;;;;;;5054122;28;20275;-53
2021/05/15 03:35:28;;;;;;;11.90;9.87;;;;;;;;;;5054550;28;20213;-55
2021/05/15 03:37:54;;;;;;;13.07;9.27;;;;;;;;;;5054779;28;20674;-55
2021/05/15 03:40:21;;;;;;;11.67;8.37;;;;;;;;;;5054444;28;20205;-54
2021/05/15 03:42:48;;;;;;;10.60;8.53;;;;;;;;;;5054110;28;20213;-51
2021/05/15 03:45:15;;;;;;;11.67;9.53;;;;;;;;;;5054132;28;20784;-53
2021/05/15 03:47:42;;;;;;;10.40;9.30;;;;;;;;;;5054423;28;20206;-55
2021/05/15 03:50:09;;;;;;;13.73;8.60;;;;;;;;;;5054324;28;20229;-58
2021/05/15 03:52:35;;;;;;;10.40;8.97;;;;;;;;;;5054378;28;20210;-55
2021/05/15 03:55:03;;;;;;;9.90;8.20;;;;;;;;;;5054307;28;20229;-55
2021/05/15 03:57:30;;;;;;;12.60;9.30;;;;;;;;;;5054023;28;20209;-55
2021/05/15 03:59:56;;;;;;;9.80;8.30;;;;;;;;;;5053892;28;20209;-58
2021/05/15 04:02:24;;;;;;;10.03;8.47;;;;;;;;;;5052618;28;20232;-57
2021/05/15 04:04:50;;;;;;;10.03;8.10;;;;;;;;;;5054071;28;20240;-53
2021/05/15 04:07:17;;;;;;;10.97;8.33;;;;;;;;;;5053650;28;20216;-55
2021/05/15 04:09:43;;;;;;;10.67;9.03;;;;;;;;;;5053626;28;20221;-57
2021/05/15 04:12:10;;;;;;;8.80;7.83;;;;;;;;;;5054141;28;20621;-58
2021/05/15 04:14:42;;;;;;;8.77;7.60;;;;;;;;;;5053910;28;20283;-56
2021/05/15 04:17:27;;;;;;;10.67;8.43;;;;;;;;;;5053708;28;20205;-57
2021/05/15 04:19:54;;;;;;;10.00;7.20;;;;;;;;;;5052587;28;20244;-57
2021/05/15 04:22:20;;;;;;;10.17;7.03;;;;;;;;;;5052642;28;20206;-56
2021/05/15 04:24:47;;;;;;;7.30;6.60;;;;;;;;;;5053899;28;20233;-56
2021/05/15 04:27:13;;;;;;;8.07;7.07;;;;;;;;;;5052997;28;20205;-57
2021/05/15 04:29:41;;;;;;;8.43;6.17;;;;;;;;;;5053075;28;20602;-55
2021/05/15 04:32:07;;;;;;;10.73;6.83;;;;;;;;;;5052927;28;20731;-56
2021/05/15 04:34:34;;;;;;;7.37;6.57;;;;;;;;;;5052869;28;20233;-58
2021/05/15 04:37:01;;;;;;;6.37;5.40;;;;;;;;;;5053545;28;20209;-58
2021/05/15 04:39:28;;;;;;;9.03;6.70;;;;;;;;;;5053383;28;20202;-58
2021/05/15 04:41:55;;;;;;;6.83;5.80;;;;;;;;;;5053433;28;20213;-58
2021/05/15 04:44:21;;;;;;;8.07;6.20;;;;;;;;;;5053096;28;20237;-58
2021/05/15 04:46:49;;;;;;;10.27;7.20;;;;;;;;;;5053512;28;20209;-55
2021/05/15 04:49:15;;;;;;;7.37;6.43;;;;;;;;;;5053175;28;20602;-58
2021/05/15 04:51:42;;;;;;;10.00;7.37;;;;;;;;;;5052704;28;20202;-58
2021/05/15 04:54:09;;;;;;;11.77;8.33;;;;;;;;;;5053028;28;20282;-57
2021/05/15 04:56:36;;;;;;;11.37;8.57;;;;;;;;;;5053161;28;20205;-57
2021/05/15 04:59:02;;;;;;;9.03;7.97;;;;;;;;;;5052195;28;20594;-58
2021/05/15 05:01:29;;;;;;;10.57;8.77;;;;;;;;;;5051484;28;20217;-53
2021/05/15 05:03:56;;;;;;;12.67;8.93;;;;;;;;;;5052857;28;20271;-56
2021/05/15 05:06:23;;;;;;;10.10;9.00;;;;;;;;;;5052388;28;20202;-57
2021/05/15 05:08:49;;;;;;;13.87;9.47;;;;;;;;;;5051985;28;20234;-57
2021/05/15 05:11:16;;;;;;;10.93;9.17;;;;;;;;;;5052619;28;20212;-58
2021/05/15 05:13:42;;;;;;;13.13;9.57;;;;;;;;;;5052784;28;20226;-58
2021/05/15 05:16:09;;;;;;;12.73;9.60;;;;;;;;;;5052853;28;20210;-57
2021/05/15 05:18:35;;;;;;;11.70;9.30;;;;;;;;;;5052051;28;20206;-57
2021/05/15 05:21:03;;;;;;;10.97;9.10;;;;;;;;;;5051138;28;20217;-58
2021/05/15 05:23:29;;;;;;;15.50;9.50;;;;;;;;;;5051857;28;20229;-58
2021/05/15 05:25:56;;;;;;;13.67;8.83;;;;;;;;;;5051539;28;20205;-58
2021/05/15 05:28:24;;;;;;;10.17;8.83;;;;;;;;;;5052013;28;20217;-56
2021/05/15 05:30:50;;;;;;;12.40;9.53;;;;;;;;;;5052078;28;20671;-57
2021/05/15 05:33:17;;;;;;;10.67;9.17;;;;;;;;;;5051281;28;20233;-58
2021/05/15 05:35:43;;;;;;;12.20;9.40;;;;;;;;;;5052692;28;20205;-58
2021/05/15 05:38:10;;;;;;;11.53;9.00;;;;;;;;;;5052231;28;20781;-58
2021/05/15 05:40:37;;;;;;;12.47;9.30;;;;;;;;;;5051511;28;20313;-58
2021/05/15 05:43:04;;;;;;;12.83;10.80;;;;;;;;;;5052301;28;20207;-57
2021/05/15 05:45:30;;;;;;;12.87;10.80;;;;;;;;;;5052410;28;20217;-58
2021/05/15 05:47:57;;;;;;;17.07;10.80;;;;;;;;;;5051838;28;20209;-57
2021/05/15 05:50:23;;;;;;;12.27;10.83;;;;;;;;;;5052346;28;20282;-52
2021/05/15 05:52:50;;;;;;;13.50;11.23;;;;;;;;;;5052371;28;20205;-58
2021/05/15 05:55:17;;;;;;;12.30;10.13;;;;;;;;;;5052018;28;20226;-58
2021/05/15 05:57:44;;;;;;;12.13;10.77;;;;;;;;;;5051848;28;20205;-57
2021/05/15 06:00:11;;;;;;;12.63;10.40;;;;;;;;;;5051262;28;20200;-57
2021/05/15 06:02:39;;;;;;;10.33;9.17;;;;;;;;;;5050589;28;20252;-57
2021/05/15 06:05:06;;;;;;;11.00;8.90;;;;;;;;;;5051832;28;20284;-58
2021/05/15 06:07:32;;;;;;;10.17;8.57;;;;;;;;;;5051518;28;20240;-55
2021/05/15 06:09:59;;;;;;;9.97;8.97;;;;;;;;;;5051712;28;20235;-56
2021/05/15 06:12:26;;;;;;;12.73;9.10;;;;;;;;;;5052075;28;20214;-56
2021/05/15 06:14:53;;;;;;;9.80;8.63;;;;;;;;;;5051587;28;20223;-55
2021/05/15 06:17:20;;;;;;;10.60;8.90;;;;;;;;;;5051136;28;20212;-58
2021/05/15 06:19:46;;;;;;;13.97;10.70;;;;;;;;;;5050713;28;20920;-56
2021/05/15 06:22:13;;;;;;;19.13;11.00;;;;;;;;;;5050527;28;20212;-51
2021/05/15 06:24:40;;;;;;;17.67;11.93;;;;;;;;;;5050352;28;20311;-58
2021/05/15 06:27:07;;;;;;;14.53;12.03;;;;;;;;;;5050844;28;20222;-57
2021/05/15 06:29:34;;;;;;;17.57;12.10;;;;;;;;;;5050801;28;20242;-56
2021/05/15 06:32:01;;;;;;;18.20;13.93;;;;;;;;;;5051135;28;20558;-58
2021/05/15 06:34:28;;;;;;;20.57;14.93;;;;;;;;;;5054506;28;20222;-58
2021/05/15 06:36:54;;;;;;;20.20;14.87;;;;;;;;;;5055563;28;20727;-55
2021/05/15 06:39:21;;;;;;;24.97;17.53;;;;;;;;;;5055747;28;20206;-55
2021/05/15 06:41:47;;;;;;;25.73;18.43;;;;;;;;;;5055687;28;20218;-58
2021/05/15 06:44:14;;;;;;;27.93;18.37;;;;;;;;;;5055462;28;20592;-58
2021/05/15 06:46:41;;;;;;;23.10;17.93;;;;;;;;;;5055537;28;20696;-53
2021/05/15 06:49:08;;;;;;;26.70;18.07;;;;;;;;;;5055015;28;20297;-58
2021/05/15 06:51:34;;;;;;;25.47;17.10;;;;;;;;;;5055263;28;20215;-53
2021/05/15 06:54:01;;;;;;;30.53;18.50;;;;;;;;;;5054326;28;20285;-55
2021/05/15 06:56:27;;;;;;;26.53;18.67;;;;;;;;;;5056061;28;20623;-58
2021/05/15 06:58:54;;;;;;;22.80;16.93;;;;;;;;;;5055687;28;20260;-58
2021/05/15 07:01:21;;;;;;;24.17;18.20;;;;;;;;;;5054439;28;20256;-55
2021/05/15 07:03:49;;;;;;;24.20;17.83;;;;;;;;;;5054740;28;20261;-57
2021/05/15 07:06:15;;;;;;;22.80;17.17;;;;;;;;;;5055784;28;20590;-57
2021/05/15 07:08:42;;;;;;;25.30;18.50;;;;;;;;;;5055591;28;20220;-58
2021/05/15 07:11:08;;;;;;;27.57;18.53;;;;;;;;;;5055386;28;20212;-58
2021/05/15 07:13:35;;;;;;;26.63;17.97;;;;;;;;;;5055288;28;20713;-56
2021/05/15 07:16:01;;;;;;;26.97;18.00;;;;;;;;;;5055284;28;20203;-58
2021/05/15 07:18:28;;;;;;;21.33;16.50;;;;;;;;;;5054476;28;20228;-56
2021/05/15 07:20:55;;;;;;;27.00;19.27;;;;;;;;;;5053719;28;20206;-54
2021/05/15 07:23:21;;;;;;;23.50;17.67;;;;;;;;;;5054429;28;20221;-56
2021/05/15 07:25:48;;;;;;;25.87;18.90;;;;;;;;;;5054738;28;20210;-52
2021/05/15 07:28:14;;;;;;;26.63;18.60;;;;;;;;;;5054881;28;20233;-54
2021/05/15 07:30:41;;;;;;;25.03;18.03;;;;;;;;;;5053329;28;20285;-58
2021/05/15 07:33:08;;;;;;;19.53;15.97;;;;;;;;;;5054105;28;20251;-58
2021/05/15 07:35:34;;;;;;;24.23;18.50;;;;;;;;;;5054254;28;20211;-58
2021/05/15 07:38:01;;;;;;;21.00;17.23;;;;;;;;;;5042050;28;20578;-58
2021/05/15 07:40:28;;;;;;;22.43;16.47;;;;;;;;;;5047755;28;20201;-58
2021/05/15 07:42:55;;;;;;;18.17;15.10;;;;;;;;;;5053618;28;20211;-58
2021/05/15 07:45:21;;;;;;;17.87;14.67;;;;;;;;;;5054107;28;20225;-58
2021/05/15 07:47:48;;;;;;;17.17;14.90;;;;;;;;;;5053745;28;20214;-58
2021/05/15 07:50:14;;;;;;;20.43;15.77;;;;;;;;;;5053632;28;20702;-53
2021/05/15 07:52:41;;;;;;;19.30;16.00;;;;;;;;;;5054140;28;20205;-58
2021/05/15 07:55:09;;;;;;;22.93;16.20;;;;;;;;;;5054264;28;20985;-59
2021/05/15 07:57:36;;;;;;;19.37;17.27;;;;;;;;;;5049833;28;20206;-57
2021/05/15 08:00:03;;;;;;;20.43;16.23;;;;;;;;;;5053768;28;20204;-56
2021/05/15 08:02:32;;;;;;;20.67;16.70;;;;;;;;;;5052323;28;20654;-58
2021/05/15 08:04:58;;;;;;;18.87;16.03;;;;;;;;;;5053541;28;20305;-58
2021/05/15 08:07:25;;;;;;;19.00;15.80;;;;;;;;;;5053084;28;20580;-58
2021/05/15 08:09:52;;;;;;;21.23;16.23;;;;;;;;;;5053473;28;20233;-58
2021/05/15 08:12:19;;;;;;;16.77;14.97;;;;;;;;;;5053568;28;20766;-56
2021/05/15 08:14:45;;;;;;;20.00;16.90;;;;;;;;;;5053256;28;20231;-57
2021/05/15 08:17:12;;;;;;;17.43;14.43;;;;;;;;;;5052959;28;20212;-58
2021/05/15 08:19:39;;;;;;;17.83;14.63;;;;;;;;;;5053261;28;20209;-58
2021/05/15 08:22:05;;;;;;;16.40;14.47;;;;;;;;;;5053354;28;20299;-57
2021/05/15 08:24:32;;;;;;;15.87;14.17;;;;;;;;;;5053595;28;20233;-58
2021/05/15 08:26:59;;;;;;;16.60;14.80;;;;;;;;;;5053123;28;20669;-57
2021/05/15 08:29:28;;;;;;;17.43;14.30;;;;;;;;;;5053289;28;20254;-59
2021/05/15 08:31:55;;;;;;;19.03;15.00;;;;;;;;;;5052840;28;20219;-61
2021/05/15 08:34:21;;;;;;;21.77;16.80;;;;;;;;;;5051769;28;20237;-61
2021/05/15 08:36:48;;;;;;;22.73;17.77;;;;;;;;;;5052634;28;20207;-60
2021/05/15 08:39:15;;;;;;;21.20;17.37;;;;;;;;;;5053206;28;20203;-63
2021/05/15 08:41:41;;;;;;;18.60;14.87;;;;;;;;;;5052863;28;20299;-62
2021/05/15 08:44:11;;;;;;;20.80;16.27;;;;;;;;;;5052614;28;20229;-61
2021/05/15 08:46:41;;;;;;;17.03;14.87;;;;;;;;;;5052487;28;20210;-65
2021/05/15 08:49:08;;;;;;;16.17;14.50;;;;;;;;;;5052191;28;20728;-64
2021/05/15 08:51:35;;;;;;;14.00;12.53;;;;;;;;;;5051777;28;20208;-62
2021/05/15 08:54:02;;;;;;;16.37;14.53;;;;;;;;;;5052976;28;20236;-65
2021/05/15 08:56:29;;;;;;;16.97;14.27;;;;;;;;;;5051744;28;20209;-63
2021/05/15 08:58:56;;;;;;;15.30;13.70;;;;;;;;;;5052657;28;20556;-62
2021/05/15 09:01:23;;;;;;;15.13;13.53;;;;;;;;;;5051819;28;20213;-63
2021/05/15 09:03:50;;;;;;;16.70;13.70;;;;;;;;;;5051841;28;20221;-63
2021/05/15 09:06:17;;;;;;;16.93;13.20;;;;;;;;;;5052459;28;20213;-63
2021/05/15 09:08:47;;;;;;;14.93;12.97;;;;;;;;;;5051005;28;20202;-62
2021/05/15 09:11:13;;;;;;;15.60;13.90;;;;;;;;;;5052399;28;20205;-62
2021/05/15 09:13:50;;;;;;;13.67;12.27;;;;;;;;;;5052212;28;20230;-63
2021/05/15 09:16:16;;;;;;;11.83;10.63;;;;;;;;;;5052382;28;20354;-62
2021/05/15 09:18:43;;;;;;;11.43;10.00;;;;;;;;;;5052512;28;20578;-67
2021/05/15 09:21:11;;;;;;;12.37;10.40;;;;;;;;;;5052075;28;20215;-67
2021/05/15 09:23:38;;;;;;;10.77;9.63;;;;;;;;;;5051770;28;20232;-65
2021/05/15 09:26:06;;;;;;;11.13;10.03;;;;;;;;;;5052144;28;20238;-63
2021/05/15 09:28:40;;;;;;;10.47;9.37;;;;;;;;;;5051745;28;20236;-62
2021/05/15 09:31:10;;;;;;;9.77;8.77;;;;;;;;;;5051899;28;20228;-59
2021/05/15 09:33:37;;;;;;;9.87;8.70;;;;;;;;;;5051930;28;20237;-61
2021/05/15 09:36:12;;;;;;;10.20;8.17;;;;;;;;;;5051402;28;20534;-61
2021/05/15 09:38:38;;;;;;;9.57;8.20;;;;;;;;;;5050795;28;20203;-61
2021/05/15 09:41:05;;;;;;;7.83;7.03;;;;;;;;;;5051547;28;20205;-65
2021/05/15 09:43:31;;;;;;;10.63;7.47;;;;;;;;;;5051792;28;20289;-65
2021/05/15 09:45:58;;;;;;;9.57;8.57;;;;;;;;;;5052233;28;20263;-65
2021/05/15 09:48:38;;;;;;;8.87;7.97;;;;;;;;;;5052021;28;20214;-63
2021/05/15 09:51:15;;;;;;;7.37;6.67;;;;;;;;;;5051840;28;20214;-60
2021/05/15 09:53:42;;;;;;;8.67;7.77;;;;;;;;;;5051398;28;20761;-61
2021/05/15 09:56:08;;;;;;;8.83;7.93;;;;;;;;;;5051602;28;20282;-61
2021/05/15 09:58:35;;;;;;;8.20;7.03;;;;;;;;;;5051274;28;20257;-61
2021/05/15 10:01:02;;;;;;;8.77;7.43;;;;;;;;;;5050558;28;20281;-63
2021/05/15 10:03:30;;;;;;;11.17;8.73;;;;;;;;;;5051284;28;20226;-60
2021/05/15 10:06:04;;;;;;;9.50;8.00;;;;;;;;;;5051766;28;20215;-60
2021/05/15 10:08:32;;;;;;;11.57;10.37;;;;;;;;;;5049753;28;20706;-61
2021/05/15 10:10:59;;;;;;;9.97;9.00;;;;;;;;;;5051175;28;20249;-63
2021/05/15 10:13:26;;;;;;;12.10;9.83;;;;;;;;;;5051557;28;20238;-63
2021/05/15 10:15:52;;;;;;;11.27;10.13;;;;;;;;;;5051402;28;20213;-63
2021/05/15 10:18:19;;;;;;;10.70;9.33;;;;;;;;;;5050996;28;20762;-63
2021/05/15 10:20:46;;;;;;;8.67;7.87;;;;;;;;;;5051234;28;20670;-61
2021/05/15 10:23:17;;;;;;;8.37;7.47;;;;;;;;;;5051561;28;20219;-61
2021/05/15 10:25:44;;;;;;;9.53;7.87;;;;;;;;;;5051407;28;20311;-60
2021/05/15 10:28:11;;;;;;;7.70;6.90;;;;;;;;;;5051534;28;20209;-62
2021/05/15 10:30:37;;;;;;;8.60;7.70;;;;;;;;;;5051057;28;20759;-62
2021/05/15 10:33:07;;;;;;;10.13;7.43;;;;;;;;;;5051386;28;20209;-63
2021/05/15 10:35:35;;;;;;;7.23;6.53;;;;;;;;;;5051964;28;20216;-63
2021/05/15 10:38:06;;;;;;;7.83;7.03;;;;;;;;;;5051587;28;20205;-60
2021/05/15 10:40:42;;;;;;;7.17;6.27;;;;;;;;;;5051423;28;20205;-56
2021/05/15 10:43:10;;;;;;;7.23;6.53;;;;;;;;;;5051297;28;20220;-57
2021/05/15 10:45:37;;;;;;;7.70;6.60;;;;;;;;;;5051152;28;20416;-59
2021/05/15 10:48:13;;;;;;;7.30;6.50;;;;;;;;;;5050711;28;20213;-62
2021/05/15 10:50:52;;;;;;;8.63;6.80;;;;;;;;;;5051271;28;20225;-63
2021/05/15 10:53:23;;;;;;;6.97;6.37;;;;;;;;;;5051473;28;20652;-62
2021/05/15 10:56:10;;;;;;;6.80;6.10;;;;;;;;;;5050933;28;20221;-60
2021/05/15 10:58:42;;;;;;;7.10;5.60;;;;;;;;;;5051139;28;20202;-58
2021/05/15 11:01:09;;;;;;;6.00;5.40;;;;;;;;;;5051250;28;20208;-63
2021/05/15 11:03:35;;;;;;;5.57;4.93;;;;;;;;;;5051286;28;20245;-62
2021/05/15 11:06:12;;;;;;;6.53;4.33;;;;;;;;;;5051583;28;20206;-62
2021/05/15 11:08:39;;;;;;;5.77;5.13;;;;;;;;;;5052772;28;20216;-62
2021/05/15 11:11:06;;;;;;;5.73;4.30;;;;;;;;;;5052356;28;20283;-62
2021/05/15 11:13:45;;;;;;;5.37;4.60;;;;;;;;;;5052557;28;20226;-62
2021/05/15 11:16:13;;;;;;;3.73;3.40;;;;;;;;;;5063296;28;20189;-62
2021/05/15 11:18:39;;;;;;;4.60;3.40;;;;;;;;;;5066665;28;20209;-62
2021/05/15 11:21:07;;;;;;;4.97;3.90;;;;;;;;;;5063410;28;20232;-62
2021/05/15 11:23:36;;;;;;;5.70;3.80;;;;;;;;;;5054904;28;20225;-62
2021/05/15 11:26:04;;;;;;;4.43;2.30;;;;;;;;;;5055044;28;20211;-64
2021/05/15 11:28:32;;;;;;;9.67;2.03;;;;;;;;;;5054870;28;20205;-62
2021/05/15 11:30:58;;;;;;;3.93;2.47;;;;;;;;;;5054560;28;20290;-62
2021/05/15 11:33:27;;;;;;;5.33;2.80;;;;;;;;;;5054430;28;20231;-59
2021/05/15 11:35:54;;;;;;;6.13;3.43;;;;;;;;;;5054027;28;20206;-60
2021/05/15 11:38:21;;;;;;;8.13;3.97;;;;;;;;;;5054247;28;20218;-61
2021/05/15 11:40:54;;;;;;;6.00;4.23;;;;;;;;;;5054338;28;20198;-60
2021/05/15 11:43:22;;;;;;;11.33;3.90;;;;;;;;;;5054289;28;20760;-60
2021/05/15 11:45:50;;;;;;;7.53;4.70;;;;;;;;;;5054079;28;20209;-60
2021/05/15 11:48:20;;;;;;;9.83;5.20;;;;;;;;;;5053655;28;20216;-61
2021/05/15 11:50:57;;;;;;;7.03;5.83;;;;;;;;;;5054464;28;20231;-63
2021/05/15 11:53:23;;;;;;;12.63;6.40;;;;;;;;;;5054683;28;20230;-61
2021/05/15 11:55:51;;;;;;;10.53;7.13;;;;;;;;;;5054147;28;20268;-63
2021/05/15 11:58:18;;;;;;;10.20;8.23;;;;;;;;;;5053660;28;20209;-62
2021/05/15 12:00:45;;;;;;;13.40;7.60;;;;;;;;;;5053657;28;20206;-63
2021/05/15 12:03:11;;;;;;;7.30;5.90;;;;;;;;;;5053940;28;20298;-60
2021/05/15 12:05:38;;;;;;;6.40;4.67;;;;;;;;;;5054042;28;20215;-61
2021/05/15 12:08:11;;;;;;;5.40;4.10;;;;;;;;;;5042755;28;20255;-61
2021/05/15 12:10:38;;;;;;;5.90;3.57;;;;;;;;;;5033418;28;20233;-64
2021/05/15 12:13:04;;;;;;;3.90;3.10;;;;;;;;;;5033432;28;20578;-65
2021/05/15 12:15:32;;;;;;;3.40;2.47;;;;;;;;;;5033149;28;20260;-65
2021/05/15 12:17:59;;;;;;;5.17;2.90;;;;;;;;;;5033395;28;20206;-60
2021/05/15 12:20:30;;;;;;;2.53;2.20;;;;;;;;;;5033386;28;20199;-60
2021/05/15 12:23:06;;;;;;;2.63;2.23;;;;;;;;;;5033391;28;20693;-57
2021/05/15 12:25:34;;;;;;;5.87;3.00;;;;;;;;;;5033356;28;20731;-61
2021/05/15 12:28:01;;;;;;;3.47;3.17;;;;;;;;;;5032501;28;20211;-60
2021/05/15 12:30:28;;;;;;;4.07;3.30;;;;;;;;;;5031857;28;20226;-64
2021/05/15 12:33:01;;;;;;;7.10;4.90;;;;;;;;;;5033427;28;20212;-64
2021/05/15 12:35:28;;;;;;;5.43;3.70;;;;;;;;;;5033069;28;20203;-63
2021/05/15 12:37:56;;;;;;;4.50;3.90;;;;;;;;;;5032680;28;20212;-63
2021/05/15 12:40:22;;;;;;;4.70;3.67;;;;;;;;;;5032609;28;20299;-59
2021/05/15 12:42:50;;;;;;;3.60;3.30;;;;;;;;;;5033251;28;20248;-60
2021/05/15 12:45:17;;;;;;;4.30;3.90;;;;;;;;;;5032724;28;20251;-62
2021/05/15 12:47:44;;;;;;;4.97;3.53;;;;;;;;;;5032480;28;20235;-61
2021/05/15 12:50:15;;;;;;;6.40;4.10;;;;;;;;;;5032660;28;20229;-56
2021/05/15 12:52:42;;;;;;;6.70;3.67;;;;;;;;;;5032632;28;20673;-64
2021/05/15 12:55:09;;;;;;;3.77;3.23;;;;;;;;;;5032871;28;20233;-60
2021/05/15 12:57:35;;;;;;;5.83;3.20;;;;;;;;;;5032533;28;20210;-60
2021/05/15 13:00:03;;;;;;;4.20;3.00;;;;;;;;;;5032447;28;20674;-57
2021/05/15 13:02:30;;;;;;;5.97;3.37;;;;;;;;;;5032676;28;20207;-60
2021/05/15 13:04:58;;;;;;;4.30;2.70;;;;;;;;;;5032398;28;20365;-66
2021/05/15 13:07:27;;;;;;;4.10;2.30;;;;;;;;;;5031794;28;20210;-63
2021/05/15 13:09:54;;;;;;;3.93;2.60;;;;;;;;;;5032473;28;20230;-63
2021/05/15 13:12:21;;;;;;;3.30;2.40;;;;;;;;;;5032284;28;20206;-63
2021/05/15 13:14:47;;;;;;;2.60;1.90;;;;;;;;;;5032229;28;20230;-64
2021/05/15 13:17:15;;;;;;;6.03;2.00;;;;;;;;;;5031681;28;20202;-62
2021/05/15 13:19:41;;;;;;;4.57;2.00;;;;;;;;;;5032055;28;20566;-62
2021/05/15 13:22:08;;;;;;;3.57;2.20;;;;;;;;;;5031926;28;20206;-62
2021/05/15 13:24:34;;;;;;;3.53;2.10;;;;;;;;;;5032228;28;20253;-63
2021/05/15 13:27:01;;;;;;;4.53;1.60;;;;;;;;;;5031922;28;20260;-64
2021/05/15 13:29:27;;;;;;;1.80;1.60;;;;;;;;;;5031509;28;20636;-63
2021/05/15 13:31:54;;;;;;;4.07;1.70;;;;;;;;;;5032350;28;20581;-61
2021/05/15 13:34:21;;;;;;;1.87;1.33;;;;;;;;;;5032048;28;20246;-62
2021/05/15 13:36:48;;;;;;;2.90;1.40;;;;;;;;;;5031441;28;20206;-61
2021/05/15 13:39:14;;;;;;;2.03;1.40;;;;;;;;;;5031871;28;20581;-61
2021/05/15 13:41:41;;;;;;;1.80;1.13;;;;;;;;;;5031570;28;20206;-64
2021/05/15 13:44:08;;;;;;;1.17;1.03;;;;;;;;;;5031719;28;20284;-63
2021/05/15 13:46:34;;;;;;;1.40;1.10;;;;;;;;;;5031543;28;20210;-64
2021/05/15 13:49:02;;;;;;;1.63;1.20;;;;;;;;;;5031354;28;20213;-64
2021/05/15 13:51:30;;;;;;;3.23;1.20;;;;;;;;;;5031618;28;20293;-64
2021/05/15 13:53:57;;;;;;;1.53;0.90;;;;;;;;;;5031493;28;20862;-62
2021/05/15 13:56:25;;;;;;;1.10;0.80;;;;;;;;;;5031398;28;20249;-62
2021/05/15 13:58:51;;;;;;;2.77;1.10;;;;;;;;;;5030971;28;20621;-61
2021/05/15 14:01:18;;;;;;;2.17;1.37;;;;;;;;;;5031139;28;20202;-63
2021/05/15 14:03:45;;;;;;;2.80;1.20;;;;;;;;;;5031310;28;20714;-64
2021/05/15 14:06:12;;;;;;;1.53;0.90;;;;;;;;;;5031381;28;20233;-60
2021/05/15 14:08:39;;;;;;;2.10;1.33;;;;;;;;;;5031179;28;20259;-58
2021/05/15 14:11:06;;;;;;;0.80;0.80;;;;;;;;;;5031165;28;20230;-56
2021/05/15 14:13:33;;;;;;;3.83;1.47;;;;;;;;;;5034760;28;20231;-58
2021/05/15 14:15:59;;;;;;;3.70;1.60;;;;;;;;;;5049748;28;20264;-64
2021/05/15 14:18:26;;;;;;;1.80;1.13;;;;;;;;;;5050400;28;20236;-64
2021/05/15 14:20:53;;;;;;;2.70;1.07;;;;;;;;;;5051145;28;20217;-67
2021/05/15 14:23:20;;;;;;;5.10;1.20;;;;;;;;;;5050761;28;20264;-66
2021/05/15 14:25:48;;;;;;;2.00;1.20;;;;;;;;;;5051228;28;20215;-65
2021/05/15 14:28:15;;;;;;;3.43;1.20;;;;;;;;;;5050633;28;20218;-66
2021/05/15 14:30:42;;;;;;;5.90;1.57;;;;;;;;;;5048211;28;20604;-64
2021/05/15 14:33:08;;;;;;;2.30;1.63;;;;;;;;;;5031326;28;20215;-58